ZKG weather

Kegaska Airport
Kegaska, Quebec, Canada

Public forecast

Using degrees Celsius for public forecast. Weather courtesy of forecast.io.

METAR (pilot weather report)

Closest report is Natashquan Airport, 20.1 nm (37.3 km) W. Retrieved 2019/07/16 03:43 UTC (0 seconds ago):

CYNA 160343Z AUTO 27004KT 3SM BR OVC002 13/12 A2976 RMK SLP080

TAF (pilot weather forecast)

Closest forecast is Natashquan Airport, 20.1 nm (37.3 km) W. Retrieved 2019/07/16 02:00 UTC (1 hour ago):

TAF CYNA 160138Z 1602/1614 VRB03KT P6SM SCT012 BKN120 TEMPO 1602/1608 4SM BR BKN012 FM160800 VRB03KT P6SM OVC015 TEMPO 1608/1613 3SM -DZ BR OVC007 FM161300 23005KT 6SM BR BKN007 RMK FCST BASED ON AUTO OBS. NXT FCST BY 160800Z